Time;durP1;ratioP1;P1;durP2;ratioP2;P2;SDS_P1;SDS_P2;PMS_P1;PMS_P2;Temp;Humidity;BMP_temperature;BMP_pressure;BME280_temperature;BME280_humidity;BME280_pressure;Samples;Min_cycle;Max_cycle;Signal;HPM_P1;HPM_P2
2023/06/21 00:01:55;;;;;;;12.37;11.23;;;20.10;1.00;;;;;;5073536;28;20812;-71
2023/06/21 00:04:21;;;;;;;13.63;12.33;;;20.10;1.00;;;;;;5074127;28;20481;-70
2023/06/21 00:07:07;;;;;;;15.27;13.87;;;20.10;1.00;;;;;;5056668;28;20412;-72
2023/06/21 00:09:33;;;;;;;14.87;12.83;;;20.10;1.00;;;;;;5090656;28;20177;-72
2023/06/21 00:12:15;;;;;;;14.80;13.33;;;20.20;1.00;;;;;;5075571;28;20822;-71
2023/06/21 00:14:46;;;;;;;16.60;13.00;;;20.20;1.00;;;;;;5093882;28;20431;-71
2023/06/21 00:17:12;;;;;;;13.60;12.30;;;20.30;1.00;;;;;;5094438;28;20496;-71
2023/06/21 00:19:57;;;;;;;13.53;12.13;;;20.30;1.00;;;;;;5094112;28;20431;-71
2023/06/21 00:22:45;;;;;;;16.33;12.87;;;20.30;1.00;;;;;;5093020;28;20900;-70
2023/06/21 00:25:10;;;;;;;14.47;13.07;;;20.30;1.00;;;;;;5093592;28;20463;-71
2023/06/21 00:27:36;;;;;;;14.47;13.20;;;20.30;1.00;;;;;;5075968;28;20423;-72
2023/06/21 00:30:11;;;;;;;16.07;13.70;;;20.20;1.00;;;;;;5093548;28;20506;-70
2023/06/21 00:32:38;;;;;;;14.60;13.20;;;20.20;1.00;;;;;;5076164;28;20410;-70
2023/06/21 00:35:05;;;;;;;14.70;13.30;;;20.30;1.00;;;;;;5093993;28;20426;-69
2023/06/21 00:37:33;;;;;;;14.30;12.97;;;20.20;1.00;;;;;;5075096;28;20531;-72
2023/06/21 00:39:59;;;;;;;14.80;13.50;;;20.30;1.00;;;;;;5093728;28;20411;-70
2023/06/21 00:42:38;;;;;;;15.47;13.83;;;20.30;1.00;;;;;;5092770;28;20412;-71
2023/06/21 00:45:14;;;;;;;15.27;13.67;;;20.30;1.00;;;;;;5074933;28;20455;-71
2023/06/21 00:47:40;;;;;;;16.00;14.40;;;20.20;1.00;;;;;;5091411;28;20492;-71
2023/06/21 00:50:07;;;;;;;16.40;14.70;;;20.20;1.00;;;;;;5092812;28;20404;-72
2023/06/21 00:52:33;;;;;;;16.87;14.73;;;20.10;1.00;;;;;;5093801;28;20412;-70
2023/06/21 00:55:08;;;;;;;16.17;14.57;;;20.00;1.00;;;;;;5093588;28;20981;-72
2023/06/21 00:57:37;;;;;;;17.80;15.90;;;19.90;1.00;;;;;;5093672;28;20779;-71
2023/06/21 01:03:21;;;;;;;19.33;16.43;;;19.80;1.00;;;;;;5093495;28;20972;-74
2023/06/21 01:09:46;;;;;;;17.43;15.57;;;19.80;1.00;;;;;;5010748;28;20521;-74
2023/06/21 01:12:36;;;;;;;17.53;15.63;;;19.70;1.00;;;;;;4952119;28;20414;-74
2023/06/21 01:15:16;;;;;;;19.80;17.80;;;19.70;1.00;;;;;;5069856;28;20469;-73
2023/06/21 01:18:09;;;;;;;19.97;17.80;;;19.70;1.00;;;;;;5073099;28;20420;-74
2023/06/21 01:20:48;;;;;;;21.33;18.27;;;19.60;5.70;;;;;;5084089;28;20949;-74
2023/06/21 01:23:28;;;;;;;21.17;17.60;;;19.60;23.40;;;;;;5093253;28;20463;-74
2023/06/21 01:33:26;;;;;;;22.97;20.10;;;19.60;90.10;;;;;;5093198;28;20419;-75
2023/06/21 01:35:54;;;;;;;21.30;19.10;;;19.50;95.50;;;;;;5075372;28;20427;-75
2023/06/21 01:38:20;;;;;;;23.80;19.90;;;19.50;99.90;;;;;;5075015;28;20423;-75
2023/06/21 01:40:47;;;;;;;23.90;20.03;;;19.50;99.90;;;;;;5092235;28;20414;-76
2023/06/21 01:43:14;;;;;;;23.17;20.77;;;19.50;99.90;;;;;;5093188;28;20431;-74
2023/06/21 01:45:40;;;;;;;24.77;21.73;;;19.50;99.90;;;;;;5091519;28;20467;-75
2023/06/21 01:48:08;;;;;;;28.10;21.43;;;19.50;99.90;;;;;;5092791;28;20418;-75
2023/06/21 01:50:36;;;;;;;26.00;21.47;;;19.50;99.90;;;;;;5092138;28;20403;-74
2023/06/21 01:53:13;;;;;;;23.10;20.60;;;19.40;99.90;;;;;;5090552;28;20443;-75
2023/06/21 01:55:44;;;;;;;22.90;19.90;;;19.40;99.90;;;;;;5092168;28;20503;-75
2023/06/21 01:58:12;;;;;;;21.43;19.23;;;19.40;99.90;;;;;;5096361;28;20435;-75
2023/06/21 02:07:52;;;;;;;19.30;17.30;;;19.30;99.90;;;;;;5095297;28;20820;-74
2023/06/21 02:13:27;;;;;;;16.70;15.00;;;19.30;99.90;;;;;;5014794;28;21034;-75
2023/06/21 02:15:56;;;;;;;17.63;15.33;;;19.20;99.90;;;;;;5095526;28;20971;-74
2023/06/21 02:21:56;;;;;;;18.23;15.73;;;18.90;99.90;;;;;;5095095;28;20434;-75
2023/06/21 02:24:32;;;;;;;20.90;15.93;;;18.90;99.90;;;;;;5093863;28;20498;-73
2023/06/21 02:27:16;;;;;;;18.70;14.50;;;18.80;99.90;;;;;;5077756;28;20427;-73
2023/06/21 02:29:45;;;;;;;15.00;13.57;;;18.70;99.90;;;;;;5096483;28;20406;-73
2023/06/21 02:32:20;;;;;;;14.87;13.47;;;18.70;99.90;;;;;;5095409;28;20391;-74
2023/06/21 02:34:46;;;;;;;17.70;14.70;;;18.70;99.90;;;;;;5078280;28;20477;-73
2023/06/21 02:37:29;;;;;;;15.07;13.47;;;18.70;99.90;;;;;;5078510;28;20796;-73
2023/06/21 02:39:58;;;;;;;14.17;12.57;;;18.70;99.90;;;;;;5092965;28;20792;-75
2023/06/21 02:42:33;;;;;;;15.77;13.70;;;18.70;99.90;;;;;;5094118;28;20485;-73
2023/06/21 02:44:59;;;;;;;13.47;12.13;;;18.70;99.90;;;;;;5096025;28;20453;-73
2023/06/21 02:51:25;;;;;;;12.50;11.27;;;18.70;99.90;;;;;;5012821;28;20955;-75
2023/06/21 02:53:51;;;;;;;14.33;10.73;;;18.70;99.90;;;;;;5008023;28;20456;-73
2023/06/21 02:56:17;;;;;;;12.30;11.00;;;18.60;99.90;;;;;;5054481;28;20423;-74
2023/06/21 02:58:49;;;;;;;13.67;12.27;;;18.60;99.90;;;;;;5075547;28;20485;-74
2023/06/21 03:01:23;;;;;;;12.30;11.07;;;18.60;99.90;;;;;;5074167;28;20472;-73
2023/06/21 03:03:49;;;;;;;12.73;11.30;;;18.60;99.90;;;;;;5075380;28;20427;-72
2023/06/21 03:07:00;;;;;;;;;;;;;;;;;;;;;
2023/06/21 03:09:27;;;;;;;12.30;11.00;;;18.60;99.90;;;;;;5086956;28;20449;-74
2023/06/21 03:11:53;;;;;;;11.33;9.93;;;18.50;99.90;;;;;;5094743;28;20431;-73
2023/06/21 03:14:19;;;;;;;14.03;11.40;;;18.50;99.90;;;;;;5077305;28;20424;-74
2023/06/21 03:17:09;;;;;;;11.43;9.80;;;18.50;99.90;;;;;;5076885;28;20451;-73
2023/06/21 03:19:35;;;;;;;10.60;9.37;;;18.50;99.90;;;;;;5094760;28;20177;-74
2023/06/21 03:22:35;;;;;;;;;;;;;;;;;;;;;
2023/06/21 03:25:02;;;;;;;13.43;10.97;;;18.50;99.90;;;;;;4993093;28;20475;-72
2023/06/21 03:27:30;;;;;;;14.10;9.83;;;18.50;99.90;;;;;;5088422;28;20752;-72
2023/06/21 03:30:13;;;;;;;14.87;10.87;;;18.40;99.90;;;;;;5094432;28;20430;-75
2023/06/21 03:32:46;;;;;;;15.60;13.00;;;18.50;99.90;;;;;;5095186;28;20425;-74
2023/06/21 03:35:18;;;;;;;14.17;11.87;;;18.40;99.90;;;;;;5095262;28;20396;-71
2023/06/21 03:37:50;;;;;;;17.50;12.47;;;18.30;99.90;;;;;;5092804;28;20423;-72
2023/06/21 03:40:18;;;;;;;17.50;12.57;;;18.30;99.90;;;;;;5094253;28;20417;-74
2023/06/21 03:42:57;;;;;;;17.23;13.27;;;18.20;1.00;;;;;;5094626;28;20403;-75
2023/06/21 03:48:19;;;;;;;16.70;13.80;;;18.30;1.00;;;;;;5093060;28;20434;-72
2023/06/21 03:50:45;;;;;;;20.30;13.40;;;18.20;1.00;;;;;;5093874;28;20403;-74
2023/06/21 03:53:13;;;;;;;18.20;12.90;;;18.20;1.00;;;;;;5094672;28;20438;-71
2023/06/21 03:55:43;;;;;;;19.10;12.43;;;18.20;1.00;;;;;;5094639;28;20178;-73
2023/06/21 03:58:12;;;;;;;16.17;12.67;;;18.20;1.00;;;;;;5094004;28;20399;-75
2023/06/21 04:00:41;;;;;;;17.27;13.30;;;18.20;1.00;;;;;;5093827;28;20414;-73
2023/06/21 04:03:10;;;;;;;14.43;12.93;;;18.20;1.00;;;;;;5093838;28;20525;-71
2023/06/21 04:05:55;;;;;;;14.47;12.67;;;18.30;1.00;;;;;;5076418;28;20860;-73
2023/06/21 04:08:21;;;;;;;17.00;12.87;;;18.30;1.00;;;;;;5093915;28;20852;-71
2023/06/21 04:11:05;;;;;;;15.70;13.00;;;18.30;1.00;;;;;;5093568;28;20423;-72
2023/06/21 04:20:15;;;;;;;18.33;13.50;;;18.40;1.00;;;;;;5008338;28;20486;-71
2023/06/21 04:22:45;;;;;;;15.90;12.73;;;18.40;1.00;;;;;;5012272;28;20392;-73
2023/06/21 04:25:11;;;;;;;15.53;13.43;;;18.50;1.00;;;;;;5012173;28;20450;-71
2023/06/21 04:27:45;;;;;;;15.53;12.87;;;18.50;1.00;;;;;;5045522;28;20408;-73
2023/06/21 04:30:11;;;;;;;16.80;12.90;;;18.60;1.00;;;;;;5093235;28;20399;-73
2023/06/21 04:32:59;;;;;;;17.87;14.73;;;18.70;1.00;;;;;;5092888;28;20984;-73
2023/06/21 04:35:24;;;;;;;17.40;12.47;;;18.70;1.00;;;;;;5093340;28;20426;-71
2023/06/21 04:37:52;;;;;;;14.50;12.80;;;18.80;1.00;;;;;;5094001;28;20412;-74
2023/06/21 04:40:21;;;;;;;15.83;13.10;;;18.80;1.00;;;;;;5075162;28;20415;-73
2023/06/21 04:46:50;;;;;;;14.40;11.50;;;18.90;1.00;;;;;;5093821;28;20462;-73
2023/06/21 04:49:17;;;;;;;14.73;10.80;;;19.00;1.00;;;;;;5073519;28;20416;-73
2023/06/21 04:51:43;;;;;;;12.30;10.60;;;19.00;1.00;;;;;;5054719;28;20413;-74
2023/06/21 04:54:12;;;;;;;13.63;11.10;;;19.10;1.00;;;;;;5072839;28;20433;-68
2023/06/21 04:57:38;;;;;;;;;;;;;;;;;;;;;
2023/06/21 05:00:27;;;;;;;13.73;10.83;;;19.20;1.00;;;;;;5091487;28;20441;-77
2023/06/21 05:02:52;;;;;;;14.53;12.00;;;19.20;1.00;;;;;;5075399;28;20404;-69
2023/06/21 05:05:19;;;;;;;16.30;12.17;;;19.20;1.00;;;;;;5093524;28;20447;-72
2023/06/21 05:07:45;;;;;;;17.37;13.43;;;19.30;1.00;;;;;;5093380;28;20166;-69
2023/06/21 05:10:11;;;;;;;19.60;15.07;;;19.30;1.00;;;;;;5092368;28;20411;-69
2023/06/21 05:12:37;;;;;;;19.63;14.90;;;19.30;1.00;;;;;;5092788;28;20821;-72
2023/06/21 05:15:04;;;;;;;18.40;15.10;;;19.30;1.00;;;;;;5092470;28;20458;-71
2023/06/21 05:17:30;;;;;;;19.27;15.83;;;19.30;1.00;;;;;;5093265;28;20427;-71
2023/06/21 05:20:15;;;;;;;21.80;15.27;;;19.30;1.00;;;;;;5075257;28;20454;-72
2023/06/21 05:22:42;;;;;;;18.17;15.60;;;19.20;1.00;;;;;;5093277;28;20181;-70
2023/06/21 05:25:09;;;;;;;15.53;13.43;;;19.20;1.00;;;;;;5093213;28;20458;-71
2023/06/21 05:27:35;;;;;;;17.43;14.03;;;19.20;1.00;;;;;;5092639;28;20396;-71
2023/06/21 05:30:01;;;;;;;15.53;13.23;;;19.30;1.00;;;;;;5091010;28;20958;-72
2023/06/21 05:32:27;;;;;;;17.53;13.40;;;19.40;1.00;;;;;;5075712;28;20452;-71
2023/06/21 05:34:53;;;;;;;19.53;14.53;;;19.30;1.00;;;;;;5079785;28;20279;-69
2023/06/21 05:38:04;;;;;;;21.67;14.60;;;19.40;1.00;;;;;;5092534;28;20427;-70
2023/06/21 05:40:30;;;;;;;23.17;14.93;;;19.40;1.00;;;;;;4971574;28;20417;-72
2023/06/21 05:43:01;;;;;;;19.63;14.23;;;19.30;1.00;;;;;;5072754;28;20443;-70
2023/06/21 05:45:28;;;;;;;18.53;15.30;;;19.30;1.00;;;;;;5072120;28;20847;-71
2023/06/21 05:47:55;;;;;;;17.13;15.10;;;19.30;1.00;;;;;;5054872;28;20408;-71
2023/06/21 05:54:15;;;;;;;25.57;20.10;;;19.30;1.00;;;;;;4951645;28;21037;-71
2023/06/21 05:57:02;;;;;;;24.03;16.47;;;19.40;1.00;;;;;;5006804;28;20916;-70
2023/06/21 05:59:28;;;;;;;18.63;15.53;;;19.40;1.00;;;;;;5010900;28;20920;-73
2023/06/21 06:01:54;;;;;;;22.93;16.57;;;19.40;1.00;;;;;;5009416;28;20457;-71
2023/06/21 06:04:20;;;;;;;19.00;16.30;;;19.50;1.00;;;;;;5035571;28;20494;-74
2023/06/21 06:06:46;;;;;;;21.70;16.43;;;19.60;1.00;;;;;;5075027;28;20432;-73
2023/06/21 06:09:14;;;;;;;17.57;15.77;;;19.60;1.00;;;;;;5093056;28;20442;-70
2023/06/21 06:11:53;;;;;;;;;;;;;;;;;;;;;
2023/06/21 06:17:16;;;;;;;22.23;17.67;;;19.90;1.00;;;;;;5091909;28;20447;-73
2023/06/21 06:19:42;;;;;;;17.57;15.27;;;20.00;1.00;;;;;;5092608;28;20434;-72
2023/06/21 06:22:11;;;;;;;22.67;16.37;;;20.10;1.00;;;;;;5091296;28;20503;-69
2023/06/21 06:24:37;;;;;;;20.50;16.80;;;20.30;1.00;;;;;;5092630;28;20828;-69
2023/06/21 06:27:04;;;;;;;23.97;15.70;;;20.40;1.00;;;;;;5074744;28;20429;-74
2023/06/21 06:29:33;;;;;;;15.77;14.10;;;20.30;1.00;;;;;;5092622;28;20396;-73
2023/06/21 06:32:29;;;;;;;;;;;;;;;;;;;;;
2023/06/21 06:34:57;;;;;;;17.57;14.00;;;20.20;1.00;;;;;;5083753;28;20445;-69
2023/06/21 06:37:24;;;;;;;21.47;15.70;;;20.20;1.00;;;;;;5092123;28;20502;-74
2023/06/21 06:39:56;;;;;;;18.90;15.87;;;20.20;1.00;;;;;;5083380;28;20847;-69
2023/06/21 06:42:22;;;;;;;20.33;15.97;;;20.20;1.00;;;;;;5075194;28;21092;-71
2023/06/21 06:44:50;;;;;;;20.97;17.03;;;20.10;1.00;;;;;;5057763;28;20816;-70
2023/06/21 06:47:17;;;;;;;20.70;17.30;;;20.10;1.00;;;;;;5064919;28;20435;-70
2023/06/21 06:49:46;;;;;;;20.00;17.03;;;20.10;1.00;;;;;;5094928;28;20834;-69
2023/06/21 06:53:08;;;;;;;;;;;;;;;;;;;;;
2023/06/21 06:55:45;;;;;;;18.80;16.90;;;20.20;1.00;;;;;;5095198;28;20414;-74
2023/06/21 06:58:11;;;;;;;22.57;18.90;;;20.20;1.00;;;;;;5095884;28;20502;-70
2023/06/21 07:00:38;;;;;;;22.97;17.33;;;20.40;1.00;;;;;;5095010;28;20977;-69
2023/06/21 07:03:07;;;;;;;20.63;16.50;;;20.40;1.00;;;;;;5095038;28;20553;-74
2023/06/21 07:05:43;;;;;;;19.70;17.53;;;20.50;1.00;;;;;;5095729;28;20448;-69
2023/06/21 07:08:08;;;;;;;18.93;16.87;;;20.60;1.00;;;;;;5077193;28;20437;-74
2023/06/21 07:10:35;;;;;;;18.17;16.17;;;20.80;1.00;;;;;;5094428;28;20506;-73
2023/06/21 07:16:14;;;;;;;19.37;17.40;;;20.80;1.00;;;;;;5095803;28;20453;-70
2023/06/21 07:18:40;;;;;;;16.80;15.10;;;20.90;1.00;;;;;;5095476;28;20417;-74
2023/06/21 07:21:06;;;;;;;19.90;16.20;;;21.10;1.00;;;;;;5094091;28;20419;-69
2023/06/21 07:23:32;;;;;;;22.60;14.63;;;21.20;1.00;;;;;;5095319;28;20423;-74
2023/06/21 07:25:58;;;;;;;16.07;14.40;;;21.40;1.00;;;;;;5095444;28;20197;-73
2023/06/21 07:28:35;;;;;;;17.80;13.30;;;21.60;1.00;;;;;;5093857;28;20419;-73
2023/06/21 07:31:05;;;;;;;14.73;12.30;;;21.50;99.90;;;;;;5094442;28;20456;-69
2023/06/21 07:34:10;;;;;;;19.43;14.07;;;21.50;99.90;;;;;;5077041;28;21143;-73
2023/06/21 07:36:36;;;;;;;16.17;14.60;;;21.60;99.90;;;;;;5013101;28;20509;-71
2023/06/21 07:39:10;;;;;;;19.03;16.60;;;21.70;99.90;;;;;;5078487;28;20511;-74
2023/06/21 07:41:36;;;;;;;17.27;15.40;;;21.70;99.90;;;;;;5076128;28;20173;-73
2023/06/21 07:44:02;;;;;;;19.10;17.10;;;21.80;99.90;;;;;;5094310;28;20446;-69
2023/06/21 07:46:28;;;;;;;19.33;17.13;;;21.70;99.90;;;;;;5095033;28;20400;-73
2023/06/21 07:48:58;;;;;;;18.43;16.63;;;21.60;99.90;;;;;;5074772;28;20419;-68
2023/06/21 07:51:39;;;;;;;20.80;17.93;;;21.60;99.90;;;;;;5093438;28;20396;-73
2023/06/21 07:54:42;;;;;;;21.00;17.80;;;21.60;99.90;;;;;;5065669;28;20454;-72
2023/06/21 07:57:27;;;;;;;18.20;16.30;;;21.60;99.90;;;;;;5090001;28;20439;-69
2023/06/21 07:59:55;;;;;;;15.60;14.07;;;21.70;99.90;;;;;;5094008;28;20407;-73
2023/06/21 08:02:32;;;;;;;18.20;16.23;;;21.70;99.90;;;;;;5094114;28;20399;-69
2023/06/21 08:04:58;;;;;;;18.50;16.53;;;21.90;99.90;;;;;;5075874;28;20451;-69
2023/06/21 08:08:12;;;;;;;18.03;16.27;;;21.90;99.90;;;;;;5093880;28;20449;-73
2023/06/21 08:10:13;;;;;;;16.50;14.90;;;21.80;99.90;;;;;;5079164;28;20431;-73
2023/06/21 08:12:58;;;;;;;15.17;13.77;;;21.70;99.90;;;;;;5094423;28;20407;-72
2023/06/21 08:15:34;;;;;;;;;;;;;;;;;;;;;
2023/06/21 08:18:07;;;;;;;14.03;12.47;;;22.00;99.90;;;;;;5094114;28;20900;-74
2023/06/21 08:20:51;;;;;;;15.07;13.10;;;22.00;99.90;;;;;;5092440;28;20920;-73
2023/06/21 08:26:13;;;;;;;14.03;11.87;;;22.10;96.50;;;;;;5012145;28;20545;-74
2023/06/21 08:28:51;;;;;;;14.70;11.60;;;22.30;96.60;;;;;;5084204;28;20423;-73
2023/06/21 08:31:17;;;;;;;12.93;11.37;;;22.30;64.50;;;;;;5093181;28;20400;-69
2023/06/21 08:34:14;;;;;;;11.57;10.40;;;22.20;30.00;;;;;;5091606;28;20452;-73
2023/06/21 08:36:52;;;;;;;14.57;11.23;;;22.20;32.70;;;;;;5072565;28;20739;-72
2023/06/21 08:39:18;;;;;;;11.03;9.70;;;22.20;21.30;;;;;;5075386;28;20412;-73
2023/06/21 08:42:10;;;;;;;11.50;9.23;;;22.30;21.30;;;;;;5092561;28;20400;-69
2023/06/21 08:44:54;;;;;;;;;;;;;;;;;;;;;
2023/06/21 08:47:22;;;;;;;12.63;9.80;;;22.30;1.00;;;;;;5093722;28;20411;-74
2023/06/21 08:50:08;;;;;;;;;;;;;;;;;;;;;
2023/06/21 08:52:36;;;;;;;17.80;10.47;;;22.60;1.00;;;;;;5093522;28;20412;-68
2023/06/21 08:55:23;;;;;;;12.33;11.03;;;22.70;1.00;;;;;;5093529;28;20431;-73
2023/06/21 08:57:51;;;;;;;12.63;11.33;;;22.60;1.00;;;;;;5063994;28;20435;-73
2023/06/21 09:00:43;;;;;;;14.80;12.93;;;22.50;1.00;;;;;;5072012;28;20404;-70
2023/06/21 09:03:55;;;;;;;19.40;13.50;;;22.40;1.00;;;;;;5060622;28;20963;-68
2023/06/21 09:06:22;;;;;;;12.20;10.97;;;22.50;1.00;;;;;;5008602;28;20544;-70
2023/06/21 09:09:04;;;;;;;14.10;11.97;;;22.70;1.00;;;;;;5093360;28;20435;-72
2023/06/21 09:11:46;;;;;;;12.40;9.70;;;22.90;1.00;;;;;;5091688;28;20446;-68
2023/06/21 09:14:12;;;;;;;13.33;11.30;;;22.90;1.00;;;;;;5093407;28;20777;-68
2023/06/21 09:16:39;;;;;;;18.83;11.63;;;22.90;1.00;;;;;;5093301;28;20979;-69
2023/06/21 09:19:05;;;;;;;13.47;11.67;;;22.90;1.00;;;;;;5092850;28;20494;-68
2023/06/21 09:21:33;;;;;;;16.73;12.53;;;23.20;1.00;;;;;;5074183;28;20431;-73
2023/06/21 09:23:59;;;;;;;16.70;12.20;;;23.20;1.00;;;;;;5093182;28;20427;-69
2023/06/21 09:26:24;;;;;;;15.40;13.80;;;23.20;1.00;;;;;;5092315;28;20474;-72
2023/06/21 09:28:50;;;;;;;14.60;12.90;;;23.40;1.00;;;;;;5093329;28;20166;-68
2023/06/21 09:31:16;;;;;;;22.30;13.63;;;23.50;1.00;;;;;;5092395;28;20166;-73
2023/06/21 09:33:44;;;;;;;16.30;11.67;;;23.80;1.00;;;;;;5092962;28;20188;-69
2023/06/21 09:36:09;;;;;;;14.43;13.13;;;23.90;1.00;;;;;;5093201;28;20169;-69
2023/06/21 09:38:44;;;;;;;14.63;13.10;;;23.90;1.00;;;;;;5092088;28;20404;-74
2023/06/21 09:41:11;;;;;;;13.90;11.73;;;23.90;1.00;;;;;;5072029;28;20430;-69
2023/06/21 09:43:44;;;;;;;13.50;12.10;;;23.90;1.00;;;;;;5072762;28;20941;-73
2023/06/21 09:46:12;;;;;;;17.13;14.73;;;24.10;1.00;;;;;;5055528;28;20466;-69
2023/06/21 09:48:41;;;;;;;14.40;12.80;;;24.00;1.00;;;;;;5069175;28;20927;-74
2023/06/21 09:51:10;;;;;;;17.20;13.77;;;24.40;1.00;;;;;;5092155;28;20908;-73
2023/06/21 09:53:36;;;;;;;13.77;12.37;;;24.80;1.00;;;;;;5081809;28;20547;-69
2023/06/21 09:56:03;;;;;;;12.50;11.40;;;24.80;1.00;;;;;;5072596;28;20435;-73
2023/06/21 09:58:34;;;;;;;11.97;10.70;;;24.70;1.00;;;;;;5072022;28;20453;-72
2023/06/21 10:01:04;;;;;;;15.23;13.73;;;24.40;1.00;;;;;;5071923;28;20409;-73
2023/06/21 10:03:32;;;;;;;15.27;13.70;;;24.00;1.00;;;;;;5072627;28;20428;-72
2023/06/21 10:05:59;;;;;;;12.47;11.20;;;23.70;1.00;;;;;;5054454;28;20471;-72
2023/06/21 10:08:28;;;;;;;12.73;11.63;;;23.80;1.00;;;;;;5081540;28;20462;-74
2023/06/21 10:11:10;;;;;;;13.77;10.13;;;24.00;1.00;;;;;;5091299;28;20499;-74
2023/06/21 10:13:39;;;;;;;14.60;12.27;;;24.20;1.00;;;;;;5074645;28;20514;-70
2023/06/21 10:16:05;;;;;;;11.67;9.90;;;24.90;1.00;;;;;;5094040;28;20404;-69
2023/06/21 10:18:32;;;;;;;8.27;7.30;;;25.50;1.00;;;;;;5096721;28;20823;-74
2023/06/21 10:21:02;;;;;;;8.73;7.90;;;25.80;1.00;;;;;;5095097;28;20400;-70
2023/06/21 10:23:31;;;;;;;8.17;7.30;;;25.90;1.00;;;;;;5078483;28;20485;-74
2023/06/21 10:26:05;;;;;;;10.30;7.30;;;25.80;1.00;;;;;;5095107;28;20459;-75
2023/06/21 10:28:39;;;;;;;8.97;8.00;;;25.70;1.00;;;;;;5096535;28;20783;-73
2023/06/21 10:31:08;;;;;;;13.67;8.50;;;25.80;1.00;;;;;;5095666;28;20868;-73
2023/06/21 10:33:35;;;;;;;8.43;7.63;;;25.70;1.00;;;;;;5096446;28;20434;-69
2023/06/21 10:36:03;;;;;;;9.10;7.90;;;25.60;1.00;;;;;;5095714;28;20403;-69
2023/06/21 10:38:43;;;;;;;9.30;7.87;;;25.80;1.00;;;;;;5095475;28;20468;-75
2023/06/21 10:41:09;;;;;;;9.57;8.57;;;25.80;1.00;;;;;;5077518;28;20498;-74
2023/06/21 10:43:35;;;;;;;9.73;7.93;;;25.30;1.00;;;;;;5096224;28;20538;-69
2023/06/21 10:46:07;;;;;;;10.07;7.97;;;25.10;1.00;;;;;;5096177;28;20824;-69
2023/06/21 10:48:33;;;;;;;7.63;6.80;;;24.90;1.00;;;;;;5078555;28;20482;-69
2023/06/21 10:51:04;;;;;;;11.07;7.37;;;25.40;1.00;;;;;;5094908;28;20400;-70
2023/06/21 10:53:33;;;;;;;8.30;7.50;;;25.80;1.00;;;;;;5078831;28;20447;-74
2023/06/21 10:56:10;;;;;;;9.67;8.70;;;26.00;1.00;;;;;;5075730;28;20919;-69
2023/06/21 10:58:35;;;;;;;8.37;6.80;;;26.40;1.00;;;;;;5057813;28;20466;-69
2023/06/21 11:01:01;;;;;;;6.87;6.17;;;26.30;1.00;;;;;;5083623;28;20432;-74
2023/06/21 11:03:27;;;;;;;8.20;6.93;;;26.20;1.00;;;;;;5095756;28;20190;-70
2023/06/21 11:05:58;;;;;;;7.17;5.90;;;26.80;1.00;;;;;;5094856;28;20193;-71
2023/06/21 11:08:31;;;;;;;7.33;4.93;;;27.30;1.00;;;;;;5076958;28;20465;-73
2023/06/21 11:10:57;;;;;;;5.63;5.13;;;27.20;1.00;;;;;;5094706;28;20415;-74
2023/06/21 11:13:39;;;;;;;6.80;4.93;;;27.50;1.00;;;;;;5095687;28;20427;-75
2023/06/21 11:16:13;;;;;;;5.37;4.90;;;28.00;99.90;;;;;;5094995;28;20264;-69
2023/06/21 11:18:42;;;;;;;5.97;5.23;;;28.20;99.90;;;;;;5095606;28;20435;-69
2023/06/21 11:21:08;;;;;;;5.50;4.80;;;28.50;99.90;;;;;;5094681;28;20912;-75
2023/06/21 11:23:50;;;;;;;7.17;4.40;;;28.30;99.90;;;;;;5095569;28;20419;-70
2023/06/21 11:26:17;;;;;;;4.90;3.77;;;28.10;99.90;;;;;;5094842;28;20217;-69
2023/06/21 11:28:50;;;;;;;4.93;4.00;;;28.30;99.90;;;;;;5094033;28;20462;-68
2023/06/21 11:31:22;;;;;;;4.60;4.03;;;27.70;99.90;;;;;;5094505;28;20408;-75
2023/06/21 11:33:54;;;;;;;4.20;2.83;;;27.70;99.90;;;;;;5093001;28;20511;-74
2023/06/21 11:36:32;;;;;;;4.70;4.27;;;28.30;99.90;;;;;;5076585;28;20434;-68
2023/06/21 11:38:59;;;;;;;3.70;3.50;;;28.10;99.90;;;;;;5095506;28;20407;-68
2023/06/21 11:41:43;;;;;;;6.07;3.73;;;28.30;99.90;;;;;;5094421;28;20400;-74
2023/06/21 11:44:12;;;;;;;5.27;4.77;;;28.40;99.90;;;;;;5095042;28;20423;-69
2023/06/21 11:46:45;;;;;;;6.13;5.43;;;28.60;99.90;;;;;;5093626;28;20869;-74
2023/06/21 11:49:11;;;;;;;5.33;3.00;;;28.50;99.90;;;;;;5095040;28;20404;-70
2023/06/21 11:51:50;;;;;;;3.40;3.10;;;27.70;99.90;;;;;;5094269;28;20431;-69
2023/06/21 11:54:34;;;;;;;3.00;2.80;;;27.30;99.90;;;;;;5094934;28;20423;-75
2023/06/21 11:57:05;;;;;;;3.47;2.80;;;26.80;99.90;;;;;;5094883;28;20400;-74
2023/06/21 11:59:32;;;;;;;2.83;2.63;;;27.40;99.90;;;;;;5094984;28;20479;-69
2023/06/21 12:02:20;;;;;;;3.53;2.70;;;28.20;99.90;;;;;;5093148;28;20442;-69
2023/06/21 12:04:48;;;;;;;4.27;2.30;;;28.80;99.90;;;;;;5092678;28;20463;-69
2023/06/21 12:07:14;;;;;;;3.70;2.60;;;29.30;99.90;;;;;;5094022;28;20430;-75
2023/06/21 12:09:50;;;;;;;2.63;2.37;;;29.10;99.90;;;;;;5076455;28;20928;-69
2023/06/21 12:12:16;;;;;;;2.67;2.47;;;29.10;99.90;;;;;;5093894;28;20411;-69
2023/06/21 12:14:42;;;;;;;3.47;2.40;;;29.20;99.90;;;;;;5093725;28;20419;-73
2023/06/21 12:17:08;;;;;;;3.60;2.60;;;28.80;99.90;;;;;;5094243;28;20411;-73
2023/06/21 12:19:34;;;;;;;6.20;2.90;;;28.30;99.90;;;;;;5094578;28;20169;-74
2023/06/21 12:22:02;;;;;;;5.00;2.40;;;27.70;99.90;;;;;;5093439;28;20244;-70
2023/06/21 12:24:28;;;;;;;10.93;2.20;;;27.70;99.90;;;;;;5093688;28;20422;-70
2023/06/21 12:26:57;;;;;;;2.47;2.27;;;28.40;99.90;;;;;;5094153;28;20427;-70
2023/06/21 12:29:27;;;;;;;3.43;2.23;;;29.20;99.90;;;;;;5094156;28;20391;-75
2023/06/21 12:31:56;;;;;;;3.53;1.90;;;29.20;99.90;;;;;;5093107;28;20813;-69
2023/06/21 12:34:22;;;;;;;4.20;1.80;;;29.30;99.90;;;;;;5091616;28;20443;-75
2023/06/21 12:36:48;;;;;;;6.20;1.63;;;29.60;99.90;;;;;;5094085;28;20395;-71
2023/06/21 12:39:15;;;;;;;2.53;1.77;;;29.80;99.90;;;;;;5093311;28;20441;-74
2023/06/21 12:41:43;;;;;;;3.47;1.77;;;29.80;99.90;;;;;;5074898;28;20699;-69
2023/06/21 12:44:27;;;;;;;2.63;1.50;;;29.20;99.90;;;;;;5093332;28;20776;-74
2023/06/21 12:46:56;;;;;;;4.87;1.93;;;29.10;99.90;;;;;;5093826;28;20491;-71
2023/06/21 12:49:22;;;;;;;6.20;1.87;;;29.20;99.90;;;;;;5093069;28;20510;-70
2023/06/21 12:51:48;;;;;;;5.33;3.40;;;29.40;99.90;;;;;;5074788;28;20450;-68
2023/06/21 12:54:20;;;;;;;3.67;2.20;;;29.30;99.90;;;;;;5093771;28;20188;-74
2023/06/21 12:56:58;;;;;;;4.30;2.57;;;29.20;99.90;;;;;;5075689;28;20408;-74
2023/06/21 12:59:24;;;;;;;6.50;2.43;;;29.50;99.90;;;;;;5093773;28;20399;-68
2023/06/21 13:01:50;;;;;;;4.68;2.60;;;29.70;99.90;;;;;;5091615;28;20458;-74
2023/06/21 13:04:17;;;;;;;3.80;2.23;;;29.30;99.90;;;;;;5090908;28;20189;-72
2023/06/21 13:06:43;;;;;;;4.50;2.30;;;29.00;99.90;;;;;;5093795;28;20706;-75
2023/06/21 13:09:10;;;;;;;4.83;2.37;;;28.90;99.90;;;;;;5093466;28;20396;-70
2023/06/21 13:11:37;;;;;;;3.70;2.40;;;29.00;99.90;;;;;;5092395;28;20424;-75
2023/06/21 13:14:05;;;;;;;6.80;2.70;;;29.80;99.90;;;;;;5093448;28;20423;-75
2023/06/21 13:16:31;;;;;;;3.50;2.63;;;30.30;99.90;;;;;;5092664;28;20428;-74
2023/06/21 13:18:56;;;;;;;2.77;2.10;;;30.30;99.90;;;;;;5074358;28;20564;-72
2023/06/21 13:21:23;;;;;;;2.40;2.10;;;30.80;99.90;;;;;;5092367;28;20491;-74
2023/06/21 13:23:50;;;;;;;3.03;2.23;;;31.30;99.90;;;;;;5075186;28;20661;-71
2023/06/21 13:26:16;;;;;;;4.23;3.00;;;31.70;99.90;;;;;;5093193;28;20449;-73
2023/06/21 13:28:42;;;;;;;6.43;2.53;;;31.70;99.90;;;;;;5093404;28;20888;-75
2023/06/21 13:31:08;;;;;;;2.80;2.60;;;31.70;99.90;;;;;;5091559;28;20425;-75
2023/06/21 13:33:34;;;;;;;4.73;2.97;;;31.60;99.90;;;;;;5092419;28;20215;-73
2023/06/21 13:35:59;;;;;;;3.80;2.57;;;31.30;99.90;;;;;;5093160;28;20518;-75
2023/06/21 13:38:26;;;;;;;4.27;2.60;;;30.60;99.90;;;;;;5092526;28;20211;-73
2023/06/21 13:40:52;;;;;;;5.97;3.27;;;29.90;99.90;;;;;;5089901;28;20657;-72
2023/06/21 13:43:18;;;;;;;3.73;2.80;;;28.80;99.90;;;;;;5092411;28;20447;-75
2023/06/21 13:45:44;;;;;;;6.57;3.23;;;28.20;99.90;;;;;;5092928;28;20193;-71
2023/06/21 13:48:11;;;;;;;5.77;3.03;;;28.40;99.90;;;;;;5075247;28;20429;-71
2023/06/21 13:50:36;;;;;;;3.60;3.03;;;27.80;99.90;;;;;;5095100;28;20172;-71
2023/06/21 13:53:02;;;;;;;2.90;2.70;;;27.70;99.90;;;;;;5097050;28;20416;-70
2023/06/21 13:55:28;;;;;;;4.33;2.90;;;27.90;99.90;;;;;;5096367;28;20586;-71
2023/06/21 13:57:54;;;;;;;5.37;3.07;;;28.00;99.90;;;;;;5078389;28;20801;-72
2023/06/21 14:00:21;;;;;;;2.60;2.40;;;27.90;99.90;;;;;;5096284;28;20912;-75
2023/06/21 14:02:50;;;;;;;16.73;3.27;;;27.60;99.90;;;;;;5097138;28;20486;-70
2023/06/21 14:05:17;;;;;;;5.90;2.90;;;27.30;99.90;;;;;;5096991;28;20443;-75
2023/06/21 14:07:44;;;;;;;5.30;2.80;;;27.00;99.90;;;;;;5096708;28;20440;-73
2023/06/21 14:10:11;;;;;;;4.00;2.40;;;27.20;99.90;;;;;;5092611;28;20987;-75